sensor_id;sensor_type;location;lat;lon;timestamp;temperature;humidity
45619;DHT22;31343;47.520;19.144;2023-10-08T00:01:52;20.30;76.10
45619;DHT22;31343;47.520;19.144;2023-10-08T00:04:25;20.30;75.80
45619;DHT22;31343;47.520;19.144;2023-10-08T00:06:51;20.30;75.40
45619;DHT22;31343;47.520;19.144;2023-10-08T00:09:18;20.40;75.70
45619;DHT22;31343;47.520;19.144;2023-10-08T00:11:47;20.40;75.40
45619;DHT22;31343;47.520;19.144;2023-10-08T00:14:19;20.40;75.20
45619;DHT22;31343;47.520;19.144;2023-10-08T00:16:47;20.40;75.20
45619;DHT22;31343;47.520;19.144;2023-10-08T00:19:17;20.40;75.30
45619;DHT22;31343;47.520;19.144;2023-10-08T00:21:45;20.40;75.30
45619;DHT22;31343;47.520;19.144;2023-10-08T00:24:11;20.50;75.10
45619;DHT22;31343;47.520;19.144;2023-10-08T00:26:40;20.50;75.70
45619;DHT22;31343;47.520;19.144;2023-10-08T00:29:07;20.40;75.40
45619;DHT22;31343;47.520;19.144;2023-10-08T00:31:42;20.40;75.30
45619;DHT22;31343;47.520;19.144;2023-10-08T00:34:11;20.40;75.10
45619;DHT22;31343;47.520;19.144;2023-10-08T00:36:43;20.40;75.50
45619;DHT22;31343;47.520;19.144;2023-10-08T00:39:10;20.40;75.50
45619;DHT22;31343;47.520;19.144;2023-10-08T00:41:44;20.30;75.30
45619;DHT22;31343;47.520;19.144;2023-10-08T00:44:12;20.30;75.40
45619;DHT22;31343;47.520;19.144;2023-10-08T00:46:42;20.40;75.20
45619;DHT22;31343;47.520;19.144;2023-10-08T00:49:17;20.40;75.00
45619;DHT22;31343;47.520;19.144;2023-10-08T00:51:47;20.50;74.90
45619;DHT22;31343;47.520;19.144;2023-10-08T00:54:15;20.50;74.80
45619;DHT22;31343;47.520;19.144;2023-10-08T00:56:48;20.40;74.80
45619;DHT22;31343;47.520;19.144;2023-10-08T00:59:25;20.40;75.00
45619;DHT22;31343;47.520;19.144;2023-10-08T01:01:53;20.40;75.20
45619;DHT22;31343;47.520;19.144;2023-10-08T01:04:30;20.30;75.10
45619;DHT22;31343;47.520;19.144;2023-10-08T01:07:00;20.30;75.50
45619;DHT22;31343;47.520;19.144;2023-10-08T01:09:39;20.30;75.50
45619;DHT22;31343;47.520;19.144;2023-10-08T01:12:12;20.30;75.60
45619;DHT22;31343;47.520;19.144;2023-10-08T01:14:44;20.20;75.80
45619;DHT22;31343;47.520;19.144;2023-10-08T01:17:13;20.10;75.80
45619;DHT22;31343;47.520;19.144;2023-10-08T01:19:47;20.10;76.00
45619;DHT22;31343;47.520;19.144;2023-10-08T01:22:21;20.00;75.80
45619;DHT22;31343;47.520;19.144;2023-10-08T01:24:50;20.00;76.20
45619;DHT22;31343;47.520;19.144;2023-10-08T01:27:17;20.00;76.40
45619;DHT22;31343;47.520;19.144;2023-10-08T01:29:53;19.90;76.40
45619;DHT22;31343;47.520;19.144;2023-10-08T01:32:25;19.90;76.60
45619;DHT22;31343;47.520;19.144;2023-10-08T01:34:52;19.90;76.80
45619;DHT22;31343;47.520;19.144;2023-10-08T01:37:18;19.90;77.00
45619;DHT22;31343;47.520;19.144;2023-10-08T01:39:47;19.90;77.20
45619;DHT22;31343;47.520;19.144;2023-10-08T01:42:16;19.90;77.10
45619;DHT22;31343;47.520;19.144;2023-10-08T01:44:47;19.80;77.50
45619;DHT22;31343;47.520;19.144;2023-10-08T01:47:17;19.80;77.50
45619;DHT22;31343;47.520;19.144;2023-10-08T01:49:45;19.80;77.40
45619;DHT22;31343;47.520;19.144;2023-10-08T01:52:12;19.80;77.60
45619;DHT22;31343;47.520;19.144;2023-10-08T01:54:43;19.70;77.80
45619;DHT22;31343;47.520;19.144;2023-10-08T01:57:10;19.70;78.40
45619;DHT22;31343;47.520;19.144;2023-10-08T01:59:35;19.70;78.30
45619;DHT22;31343;47.520;19.144;2023-10-08T02:02:03;19.60;78.40
45619;DHT22;31343;47.520;19.144;2023-10-08T02:04:31;19.60;78.50
45619;DHT22;31343;47.520;19.144;2023-10-08T02:06:59;19.60;78.70
45619;DHT22;31343;47.520;19.144;2023-10-08T02:09:25;19.50;79.00
45619;DHT22;31343;47.520;19.144;2023-10-08T02:11:52;19.60;79.30
45619;DHT22;31343;47.520;19.144;2023-10-08T02:14:22;19.50;79.40
45619;DHT22;31343;47.520;19.144;2023-10-08T02:16:49;19.50;79.80
45619;DHT22;31343;47.520;19.144;2023-10-08T02:19:16;19.50;80.00
45619;DHT22;31343;47.520;19.144;2023-10-08T02:21:44;19.40;80.40
45619;DHT22;31343;47.520;19.144;2023-10-08T02:24:12;19.40;80.50
45619;DHT22;31343;47.520;19.144;2023-10-08T02:26:39;19.40;80.90
45619;DHT22;31343;47.520;19.144;2023-10-08T02:29:05;19.40;81.60
45619;DHT22;31343;47.520;19.144;2023-10-08T02:31:38;19.30;81.70
45619;DHT22;31343;47.520;19.144;2023-10-08T02:34:05;19.30;82.10
45619;DHT22;31343;47.520;19.144;2023-10-08T02:36:34;19.30;82.00
45619;DHT22;31343;47.520;19.144;2023-10-08T02:39:02;19.30;82.30
45619;DHT22;31343;47.520;19.144;2023-10-08T02:41:34;19.20;82.90
45619;DHT22;31343;47.520;19.144;2023-10-08T02:44:02;19.10;83.50
45619;DHT22;31343;47.520;19.144;2023-10-08T02:46:31;19.10;83.50
45619;DHT22;31343;47.520;19.144;2023-10-08T02:48:58;19.20;83.70
45619;DHT22;31343;47.520;19.144;2023-10-08T02:51:24;19.20;84.00
45619;DHT22;31343;47.520;19.144;2023-10-08T02:53:50;19.10;84.30
45619;DHT22;31343;47.520;19.144;2023-10-08T02:56:16;19.20;84.10
45619;DHT22;31343;47.520;19.144;2023-10-08T02:58:42;19.20;84.30
45619;DHT22;31343;47.520;19.144;2023-10-08T03:01:13;19.20;84.60
45619;DHT22;31343;47.520;19.144;2023-10-08T03:03:40;19.20;84.50
45619;DHT22;31343;47.520;19.144;2023-10-08T03:06:07;19.20;84.40
45619;DHT22;31343;47.520;19.144;2023-10-08T03:08:40;19.20;84.70
45619;DHT22;31343;47.520;19.144;2023-10-08T03:11:11;19.20;84.50
45619;DHT22;31343;47.520;19.144;2023-10-08T03:13:46;19.30;84.30
45619;DHT22;31343;47.520;19.144;2023-10-08T03:16:15;19.30;84.50
45619;DHT22;31343;47.520;19.144;2023-10-08T03:18:41;19.30;84.90
45619;DHT22;31343;47.520;19.144;2023-10-08T03:21:20;19.30;85.10
45619;DHT22;31343;47.520;19.144;2023-10-08T03:23:47;19.20;85.40
45619;DHT22;31343;47.520;19.144;2023-10-08T03:26:14;19.20;85.50
45619;DHT22;31343;47.520;19.144;2023-10-08T03:29:00;19.20;85.50
45619;DHT22;31343;47.520;19.144;2023-10-08T03:31:31;19.20;85.80
45619;DHT22;31343;47.520;19.144;2023-10-08T03:34:13;19.10;86.20
45619;DHT22;31343;47.520;19.144;2023-10-08T03:36:40;19.00;86.70
45619;DHT22;31343;47.520;19.144;2023-10-08T03:39:16;19.00;86.70
45619;DHT22;31343;47.520;19.144;2023-10-08T03:41:44;19.00;87.40
45619;DHT22;31343;47.520;19.144;2023-10-08T03:44:29;18.90;87.70
45619;DHT22;31343;47.520;19.144;2023-10-08T03:46:55;18.80;86.70
45619;DHT22;31343;47.520;19.144;2023-10-08T03:49:22;18.70;86.10
45619;DHT22;31343;47.520;19.144;2023-10-08T03:51:49;18.70;87.20
45619;DHT22;31343;47.520;19.144;2023-10-08T03:54:18;18.70;87.10
45619;DHT22;31343;47.520;19.144;2023-10-08T03:56:46;18.60;86.90
45619;DHT22;31343;47.520;19.144;2023-10-08T03:59:17;18.60;86.70
45619;DHT22;31343;47.520;19.144;2023-10-08T04:02:00;18.60;86.80
45619;DHT22;31343;47.520;19.144;2023-10-08T04:04:35;18.60;86.90
45619;DHT22;31343;47.520;19.144;2023-10-08T04:07:21;18.50;86.70
45619;DHT22;31343;47.520;19.144;2023-10-08T04:09:52;18.50;88.00
45619;DHT22;31343;47.520;19.144;2023-10-08T04:12:36;18.50;88.60
45619;DHT22;31343;47.520;19.144;2023-10-08T04:15:09;18.40;89.30
45619;DHT22;31343;47.520;19.144;2023-10-08T04:17:38;18.40;88.00
45619;DHT22;31343;47.520;19.144;2023-10-08T04:20:11;18.40;87.60
45619;DHT22;31343;47.520;19.144;2023-10-08T04:22:55;18.30;88.90
45619;DHT22;31343;47.520;19.144;2023-10-08T04:25:21;18.20;90.10
45619;DHT22;31343;47.520;19.144;2023-10-08T04:27:47;18.20;90.10
45619;DHT22;31343;47.520;19.144;2023-10-08T04:30:15;18.10;90.30
45619;DHT22;31343;47.520;19.144;2023-10-08T04:32:41;17.90;90.60
45619;DHT22;31343;47.520;19.144;2023-10-08T04:35:08;17.80;90.60
45619;DHT22;31343;47.520;19.144;2023-10-08T04:37:40;17.80;90.70
45619;DHT22;31343;47.520;19.144;2023-10-08T04:40:07;17.80;90.50
45619;DHT22;31343;47.520;19.144;2023-10-08T04:42:42;17.90;90.80
45619;DHT22;31343;47.520;19.144;2023-10-08T04:45:11;17.90;90.90
45619;DHT22;31343;47.520;19.144;2023-10-08T04:47:40;18.10;91.00
45619;DHT22;31343;47.520;19.144;2023-10-08T04:50:09;18.20;90.90
45619;DHT22;31343;47.520;19.144;2023-10-08T04:52:41;18.30;90.60
45619;DHT22;31343;47.520;19.144;2023-10-08T04:55:24;18.40;90.40
45619;DHT22;31343;47.520;19.144;2023-10-08T04:57:55;18.60;90.20
45619;DHT22;31343;47.520;19.144;2023-10-08T05:00:21;18.60;90.10
45619;DHT22;31343;47.520;19.144;2023-10-08T05:03:07;18.80;90.00
45619;DHT22;31343;47.520;19.144;2023-10-08T05:05:42;18.80;90.00
45619;DHT22;31343;47.520;19.144;2023-10-08T05:08:40;18.80;89.80
45619;DHT22;31343;47.520;19.144;2023-10-08T05:11:37;18.90;89.60
45619;DHT22;31343;47.520;19.144;2023-10-08T05:14:14;19.10;89.20
45619;DHT22;31343;47.520;19.144;2023-10-08T05:16:55;19.20;88.80
45619;DHT22;31343;47.520;19.144;2023-10-08T05:19:49;19.30;88.70
45619;DHT22;31343;47.520;19.144;2023-10-08T05:22:24;19.50;88.50
45619;DHT22;31343;47.520;19.144;2023-10-08T05:24:52;19.60;88.20
45619;DHT22;31343;47.520;19.144;2023-10-08T05:27:40;19.80;87.80
45619;DHT22;31343;47.520;19.144;2023-10-08T05:30:38;19.90;87.60
45619;DHT22;31343;47.520;19.144;2023-10-08T05:33:06;20.00;87.40
45619;DHT22;31343;47.520;19.144;2023-10-08T05:35:36;20.20;87.50
45619;DHT22;31343;47.520;19.144;2023-10-08T05:38:15;20.30;87.10
45619;DHT22;31343;47.520;19.144;2023-10-08T05:40:51;20.40;86.70
45619;DHT22;31343;47.520;19.144;2023-10-08T05:43:35;20.40;86.20
45619;DHT22;31343;47.520;19.144;2023-10-08T05:46:12;20.50;86.40
45619;DHT22;31343;47.520;19.144;2023-10-08T05:48:55;20.60;85.60
45619;DHT22;31343;47.520;19.144;2023-10-08T05:51:41;20.60;85.80
45619;DHT22;31343;47.520;19.144;2023-10-08T05:54:21;20.70;85.70
45619;DHT22;31343;47.520;19.144;2023-10-08T05:57:07;20.70;85.90
45619;DHT22;31343;47.520;19.144;2023-10-08T06:02:35;20.70;86.10
45619;DHT22;31343;47.520;19.144;2023-10-08T06:05:23;20.80;86.20
45619;DHT22;31343;47.520;19.144;2023-10-08T06:07:53;20.70;86.20
45619;DHT22;31343;47.520;19.144;2023-10-08T06:10:29;20.70;86.60
45619;DHT22;31343;47.520;19.144;2023-10-08T06:15:41;20.70;87.70
45619;DHT22;31343;47.520;19.144;2023-10-08T06:18:26;20.70;86.80
45619;DHT22;31343;47.520;19.144;2023-10-08T06:20:53;20.70;87.40
45619;DHT22;31343;47.520;19.144;2023-10-08T06:23:20;20.70;87.40
45619;DHT22;31343;47.520;19.144;2023-10-08T06:25:49;20.60;87.50
45619;DHT22;31343;47.520;19.144;2023-10-08T06:28:22;20.60;87.90
45619;DHT22;31343;47.520;19.144;2023-10-08T06:30:52;20.60;88.10
45619;DHT22;31343;47.520;19.144;2023-10-08T06:33:25;20.60;88.50
45619;DHT22;31343;47.520;19.144;2023-10-08T06:35:56;20.70;88.60
45619;DHT22;31343;47.520;19.144;2023-10-08T06:38:32;20.70;88.90
45619;DHT22;31343;47.520;19.144;2023-10-08T06:40:59;20.70;88.80
45619;DHT22;31343;47.520;19.144;2023-10-08T06:43:28;20.70;89.10
45619;DHT22;31343;47.520;19.144;2023-10-08T06:45:54;20.70;89.10
45619;DHT22;31343;47.520;19.144;2023-10-08T06:48:25;20.70;89.30
45619;DHT22;31343;47.520;19.144;2023-10-08T06:50:55;20.80;89.10
45619;DHT22;31343;47.520;19.144;2023-10-08T06:53:24;20.70;89.30
45619;DHT22;31343;47.520;19.144;2023-10-08T06:55:50;20.70;89.10
45619;DHT22;31343;47.520;19.144;2023-10-08T06:58:26;20.70;89.40
45619;DHT22;31343;47.520;19.144;2023-10-08T07:00:53;20.70;89.20
45619;DHT22;31343;47.520;19.144;2023-10-08T07:03:20;20.70;89.50
45619;DHT22;31343;47.520;19.144;2023-10-08T07:05:49;20.70;89.60
45619;DHT22;31343;47.520;19.144;2023-10-08T07:08:29;20.80;89.60
45619;DHT22;31343;47.520;19.144;2023-10-08T07:10:57;20.80;89.50
45619;DHT22;31343;47.520;19.144;2023-10-08T07:13:25;20.80;89.70
45619;DHT22;31343;47.520;19.144;2023-10-08T07:15:56;21.00;89.50
45619;DHT22;31343;47.520;19.144;2023-10-08T07:18:22;21.30;89.10
45619;DHT22;31343;47.520;19.144;2023-10-08T07:20:54;21.70;88.70
45619;DHT22;31343;47.520;19.144;2023-10-08T07:23:28;21.80;87.10
45619;DHT22;31343;47.520;19.144;2023-10-08T07:26:01;21.90;86.60
45619;DHT22;31343;47.520;19.144;2023-10-08T07:28:40;22.30;86.70
45619;DHT22;31343;47.520;19.144;2023-10-08T07:31:23;22.40;86.00
45619;DHT22;31343;47.520;19.144;2023-10-08T07:33:54;22.70;85.70
45619;DHT22;31343;47.520;19.144;2023-10-08T07:36:26;22.70;85.30
45619;DHT22;31343;47.520;19.144;2023-10-08T07:38:53;22.70;85.10
45619;DHT22;31343;47.520;19.144;2023-10-08T07:41:19;22.90;85.40
45619;DHT22;31343;47.520;19.144;2023-10-08T07:43:47;23.10;84.90
45619;DHT22;31343;47.520;19.144;2023-10-08T07:46:24;23.10;84.90
45619;DHT22;31343;47.520;19.144;2023-10-08T07:48:52;23.00;84.70
45619;DHT22;31343;47.520;19.144;2023-10-08T07:51:19;22.90;85.30
45619;DHT22;31343;47.520;19.144;2023-10-08T07:53:48;22.90;86.20
45619;DHT22;31343;47.520;19.144;2023-10-08T07:56:15;22.60;86.40
45619;DHT22;31343;47.520;19.144;2023-10-08T07:58:43;22.90;86.60
45619;DHT22;31343;47.520;19.144;2023-10-08T08:01:09;23.00;86.90
45619;DHT22;31343;47.520;19.144;2023-10-08T08:03:36;22.80;86.60
45619;DHT22;31343;47.520;19.144;2023-10-08T08:06:06;22.90;87.30
45619;DHT22;31343;47.520;19.144;2023-10-08T08:08:37;23.10;87.70
45619;DHT22;31343;47.520;19.144;2023-10-08T08:11:03;23.30;86.80
45619;DHT22;31343;47.520;19.144;2023-10-08T08:13:35;23.30;87.00
45619;DHT22;31343;47.520;19.144;2023-10-08T08:16:01;23.30;87.00
45619;DHT22;31343;47.520;19.144;2023-10-08T08:18:47;23.40;87.40
45619;DHT22;31343;47.520;19.144;2023-10-08T08:21:19;23.50;87.20
45619;DHT22;31343;47.520;19.144;2023-10-08T08:23:48;23.40;87.00
45619;DHT22;31343;47.520;19.144;2023-10-08T08:26:24;23.40;86.90
45619;DHT22;31343;47.520;19.144;2023-10-08T08:28:58;23.50;87.10
45619;DHT22;31343;47.520;19.144;2023-10-08T08:31:26;23.30;87.50
45619;DHT22;31343;47.520;19.144;2023-10-08T08:33:52;23.20;87.80
45619;DHT22;31343;47.520;19.144;2023-10-08T08:36:23;23.20;88.70
45619;DHT22;31343;47.520;19.144;2023-10-08T08:38:49;23.10;88.50
45619;DHT22;31343;47.520;19.144;2023-10-08T08:41:16;23.10;88.50
45619;DHT22;31343;47.520;19.144;2023-10-08T08:43:53;23.30;88.30
45619;DHT22;31343;47.520;19.144;2023-10-08T08:46:37;23.40;89.70
45619;DHT22;31343;47.520;19.144;2023-10-08T08:49:07;23.60;88.50
45619;DHT22;31343;47.520;19.144;2023-10-08T08:51:34;23.80;88.30
45619;DHT22;31343;47.520;19.144;2023-10-08T08:54:05;24.10;87.40
45619;DHT22;31343;47.520;19.144;2023-10-08T08:56:41;24.30;87.70
45619;DHT22;31343;47.520;19.144;2023-10-08T08:59:09;24.10;87.40
45619;DHT22;31343;47.520;19.144;2023-10-08T09:01:46;24.10;87.90
45619;DHT22;31343;47.520;19.144;2023-10-08T09:04:13;24.10;87.30
45619;DHT22;31343;47.520;19.144;2023-10-08T09:06:42;24.30;87.90
45619;DHT22;31343;47.520;19.144;2023-10-08T09:09:07;24.30;87.60
45619;DHT22;31343;47.520;19.144;2023-10-08T09:11:48;24.60;88.40
45619;DHT22;31343;47.520;19.144;2023-10-08T09:14:21;24.70;87.40
45619;DHT22;31343;47.520;19.144;2023-10-08T09:16:47;24.70;86.30
45619;DHT22;31343;47.520;19.144;2023-10-08T09:19:13;24.70;87.30
45619;DHT22;31343;47.520;19.144;2023-10-08T09:22:03;24.70;87.00
45619;DHT22;31343;47.520;19.144;2023-10-08T09:24:34;24.50;87.40
45619;DHT22;31343;47.520;19.144;2023-10-08T09:27:11;24.20;87.70
45619;DHT22;31343;47.520;19.144;2023-10-08T09:29:41;24.00;89.30
45619;DHT22;31343;47.520;19.144;2023-10-08T09:32:11;23.60;90.10
45619;DHT22;31343;47.520;19.144;2023-10-08T09:34:39;23.50;90.40
45619;DHT22;31343;47.520;19.144;2023-10-08T09:37:06;23.40;90.50
45619;DHT22;31343;47.520;19.144;2023-10-08T09:39:33;23.30;90.90
45619;DHT22;31343;47.520;19.144;2023-10-08T09:42:03;23.00;91.20
45619;DHT22;31343;47.520;19.144;2023-10-08T09:44:35;23.00;91.80
45619;DHT22;31343;47.520;19.144;2023-10-08T09:47:08;22.70;91.80
45619;DHT22;31343;47.520;19.144;2023-10-08T09:49:40;22.70;92.10
45619;DHT22;31343;47.520;19.144;2023-10-08T09:52:09;22.50;92.20
45619;DHT22;31343;47.520;19.144;2023-10-08T09:54:48;22.50;92.30
45619;DHT22;31343;47.520;19.144;2023-10-08T09:57:15;22.50;92.70
45619;DHT22;31343;47.520;19.144;2023-10-08T09:59:46;22.40;92.80
45619;DHT22;31343;47.520;19.144;2023-10-08T10:02:12;22.30;93.10
45619;DHT22;31343;47.520;19.144;2023-10-08T10:04:44;22.30;93.20
45619;DHT22;31343;47.520;19.144;2023-10-08T10:07:11;22.10;93.30
45619;DHT22;31343;47.520;19.144;2023-10-08T10:09:46;22.00;93.60
45619;DHT22;31343;47.520;19.144;2023-10-08T10:12:20;21.90;93.90
45619;DHT22;31343;47.520;19.144;2023-10-08T10:14:55;21.60;93.50
45619;DHT22;31343;47.520;19.144;2023-10-08T10:17:23;21.30;93.60
45619;DHT22;31343;47.520;19.144;2023-10-08T10:20:01;21.10;93.90
45619;DHT22;31343;47.520;19.144;2023-10-08T10:22:31;21.10;94.10
45619;DHT22;31343;47.520;19.144;2023-10-08T10:24:58;21.00;94.40
45619;DHT22;31343;47.520;19.144;2023-10-08T10:27:29;21.00;94.30
45619;DHT22;31343;47.520;19.144;2023-10-08T10:30:03;21.10;94.50
45619;DHT22;31343;47.520;19.144;2023-10-08T10:32:36;21.10;94.40
45619;DHT22;31343;47.520;19.144;2023-10-08T10:35:02;21.10;94.60
45619;DHT22;31343;47.520;19.144;2023-10-08T10:37:37;21.20;95.10
45619;DHT22;31343;47.520;19.144;2023-10-08T10:40:22;21.30;95.10
45619;DHT22;31343;47.520;19.144;2023-10-08T10:43:06;21.50;95.40
45619;DHT22;31343;47.520;19.144;2023-10-08T10:45:33;21.80;95.20
45619;DHT22;31343;47.520;19.144;2023-10-08T10:48:13;22.00;95.00
45619;DHT22;31343;47.520;19.144;2023-10-08T10:50:47;22.20;94.30
45619;DHT22;31343;47.520;19.144;2023-10-08T10:53:23;22.20;93.90
45619;DHT22;31343;47.520;19.144;2023-10-08T10:55:52;22.10;92.60
45619;DHT22;31343;47.520;19.144;2023-10-08T10:58:35;22.00;92.60
45619;DHT22;31343;47.520;19.144;2023-10-08T11:01:06;22.00;92.80
45619;DHT22;31343;47.520;19.144;2023-10-08T11:04:06;22.00;91.90
45619;DHT22;31343;47.520;19.144;2023-10-08T11:06:32;21.90;91.20
45619;DHT22;31343;47.520;19.144;2023-10-08T11:09:00;21.60;90.50
45619;DHT22;31343;47.520;19.144;2023-10-08T11:11:28;21.40;91.00
45619;DHT22;31343;47.520;19.144;2023-10-08T11:13:59;21.30;91.20
45619;DHT22;31343;47.520;19.144;2023-10-08T11:16:28;21.20;91.10
45619;DHT22;31343;47.520;19.144;2023-10-08T11:18:57;21.10;90.40
45619;DHT22;31343;47.520;19.144;2023-10-08T11:21:32;21.00;90.60
45619;DHT22;31343;47.520;19.144;2023-10-08T11:24:02;20.90;90.70
45619;DHT22;31343;47.520;19.144;2023-10-08T11:26:40;20.90;91.20
45619;DHT22;31343;47.520;19.144;2023-10-08T11:29:20;20.90;91.20
45619;DHT22;31343;47.520;19.144;2023-10-08T11:31:51;20.80;91.50
45619;DHT22;31343;47.520;19.144;2023-10-08T11:34:18;20.80;91.80
45619;DHT22;31343;47.520;19.144;2023-10-08T11:36:53;20.50;91.70
45619;DHT22;31343;47.520;19.144;2023-10-08T11:39:19;20.40;91.60
45619;DHT22;31343;47.520;19.144;2023-10-08T11:41:59;20.30;91.50
45619;DHT22;31343;47.520;19.144;2023-10-08T11:44:31;20.30;91.40
45619;DHT22;31343;47.520;19.144;2023-10-08T11:47:01;20.10;91.20
45619;DHT22;31343;47.520;19.144;2023-10-08T11:49:38;20.20;91.30
45619;DHT22;31343;47.520;19.144;2023-10-08T11:52:12;20.20;91.00
45619;DHT22;31343;47.520;19.144;2023-10-08T11:54:44;20.10;91.20
45619;DHT22;31343;47.520;19.144;2023-10-08T11:57:11;20.00;91.10
45619;DHT22;31343;47.520;19.144;2023-10-08T11:59:37;19.80;91.40
45619;DHT22;31343;47.520;19.144;2023-10-08T12:02:06;19.80;91.70
45619;DHT22;31343;47.520;19.144;2023-10-08T12:04:32;19.70;91.50
45619;DHT22;31343;47.520;19.144;2023-10-08T12:06:58;19.70;91.40
45619;DHT22;31343;47.520;19.144;2023-10-08T12:09:28;19.60;91.00
45619;DHT22;31343;47.520;19.144;2023-10-08T12:11:54;19.50;90.90
45619;DHT22;31343;47.520;19.144;2023-10-08T12:14:22;19.50;91.00
45619;DHT22;31343;47.520;19.144;2023-10-08T12:16:56;19.40;91.00
45619;DHT22;31343;47.520;19.144;2023-10-08T12:19:25;19.30;91.20
45619;DHT22;31343;47.520;19.144;2023-10-08T12:21:52;19.10;91.20
45619;DHT22;31343;47.520;19.144;2023-10-08T12:24:18;19.00;90.70
45619;DHT22;31343;47.520;19.144;2023-10-08T12:26:46;18.90;90.60
45619;DHT22;31343;47.520;19.144;2023-10-08T12:29:12;18.90;90.50
45619;DHT22;31343;47.520;19.144;2023-10-08T12:31:43;18.90;90.70
45619;DHT22;31343;47.520;19.144;2023-10-08T12:34:20;18.90;90.70
45619;DHT22;31343;47.520;19.144;2023-10-08T12:36:49;19.00;90.50
45619;DHT22;31343;47.520;19.144;2023-10-08T12:39:16;19.00;90.40
45619;DHT22;31343;47.520;19.144;2023-10-08T12:41:42;18.90;90.50
45619;DHT22;31343;47.520;19.144;2023-10-08T12:44:10;18.80;90.40
45619;DHT22;31343;47.520;19.144;2023-10-08T12:46:36;18.80;90.00
45619;DHT22;31343;47.520;19.144;2023-10-08T12:49:02;18.90;90.20
45619;DHT22;31343;47.520;19.144;2023-10-08T12:51:29;18.90;89.70
45619;DHT22;31343;47.520;19.144;2023-10-08T12:53:59;19.00;90.10
45619;DHT22;31343;47.520;19.144;2023-10-08T12:56:30;19.20;89.90
45619;DHT22;31343;47.520;19.144;2023-10-08T12:59:05;19.20;88.60
45619;DHT22;31343;47.520;19.144;2023-10-08T13:01:37;19.10;88.90
45619;DHT22;31343;47.520;19.144;2023-10-08T13:04:06;19.10;87.10
45619;DHT22;31343;47.520;19.144;2023-10-08T13:06:34;19.10;86.30
45619;DHT22;31343;47.520;19.144;2023-10-08T13:09:03;18.90;86.30
45619;DHT22;31343;47.520;19.144;2023-10-08T13:11:35;18.70;86.60
45619;DHT22;31343;47.520;19.144;2023-10-08T13:14:00;18.50;87.20
45619;DHT22;31343;47.520;19.144;2023-10-08T13:16:28;18.30;87.80
45619;DHT22;31343;47.520;19.144;2023-10-08T13:19:03;18.40;87.60
45619;DHT22;31343;47.520;19.144;2023-10-08T13:21:29;18.40;88.00
45619;DHT22;31343;47.520;19.144;2023-10-08T13:23:55;18.40;87.90
45619;DHT22;31343;47.520;19.144;2023-10-08T13:26:29;18.30;88.40
45619;DHT22;31343;47.520;19.144;2023-10-08T13:28:58;18.30;87.90
45619;DHT22;31343;47.520;19.144;2023-10-08T13:31:25;18.40;87.50
45619;DHT22;31343;47.520;19.144;2023-10-08T13:33:51;18.30;87.40
45619;DHT22;31343;47.520;19.144;2023-10-08T13:36:18;18.20;87.90
45619;DHT22;31343;47.520;19.144;2023-10-08T13:38:45;18.20;88.00
45619;DHT22;31343;47.520;19.144;2023-10-08T13:41:15;18.20;88.30
45619;DHT22;31343;47.520;19.144;2023-10-08T13:43:47;18.20;88.10
45619;DHT22;31343;47.520;19.144;2023-10-08T13:46:18;18.30;87.70
45619;DHT22;31343;47.520;19.144;2023-10-08T13:48:45;18.30;87.80
45619;DHT22;31343;47.520;19.144;2023-10-08T13:51:15;18.20;88.00
45619;DHT22;31343;47.520;19.144;2023-10-08T13:53:59;18.20;88.40
45619;DHT22;31343;47.520;19.144;2023-10-08T13:56:26;18.20;87.20
45619;DHT22;31343;47.520;19.144;2023-10-08T13:58:59;18.10;86.50
45619;DHT22;31343;47.520;19.144;2023-10-08T14:01:38;18.10;86.80
45619;DHT22;31343;47.520;19.144;2023-10-08T14:04:06;18.00;87.70
45619;DHT22;31343;47.520;19.144;2023-10-08T14:06:37;18.10;87.50
45619;DHT22;31343;47.520;19.144;2023-10-08T14:09:04;18.00;87.30
45619;DHT22;31343;47.520;19.144;2023-10-08T14:11:35;17.90;87.50
45619;DHT22;31343;47.520;19.144;2023-10-08T14:14:01;17.70;87.30
45619;DHT22;31343;47.520;19.144;2023-10-08T14:16:28;17.80;87.30
45619;DHT22;31343;47.520;19.144;2023-10-08T14:18:55;17.80;86.80
45619;DHT22;31343;47.520;19.144;2023-10-08T14:21:26;17.70;86.60
45619;DHT22;31343;47.520;19.144;2023-10-08T14:24:02;17.70;87.60
45619;DHT22;31343;47.520;19.144;2023-10-08T14:26:33;17.60;86.80
45619;DHT22;31343;47.520;19.144;2023-10-08T14:29:02;17.60;87.20
45619;DHT22;31343;47.520;19.144;2023-10-08T14:31:38;17.60;86.10
45619;DHT22;31343;47.520;19.144;2023-10-08T14:34:07;17.60;85.70
45619;DHT22;31343;47.520;19.144;2023-10-08T14:36:42;17.50;86.10
45619;DHT22;31343;47.520;19.144;2023-10-08T14:39:26;17.50;85.70
45619;DHT22;31343;47.520;19.144;2023-10-08T14:42:15;17.60;86.20
45619;DHT22;31343;47.520;19.144;2023-10-08T14:44:59;17.60;85.80
45619;DHT22;31343;47.520;19.144;2023-10-08T14:47:29;17.60;84.80
45619;DHT22;31343;47.520;19.144;2023-10-08T14:49:55;17.60;84.80
45619;DHT22;31343;47.520;19.144;2023-10-08T14:52:22;17.50;85.40
45619;DHT22;31343;47.520;19.144;2023-10-08T14:54:50;17.40;85.80
45619;DHT22;31343;47.520;19.144;2023-10-08T14:57:17;17.30;85.30
45619;DHT22;31343;47.520;19.144;2023-10-08T14:59:44;17.30;85.50
45619;DHT22;31343;47.520;19.144;2023-10-08T15:02:09;17.40;85.90
45619;DHT22;31343;47.520;19.144;2023-10-08T15:04:37;17.30;85.50
45619;DHT22;31343;47.520;19.144;2023-10-08T15:07:07;17.30;84.50
45619;DHT22;31343;47.520;19.144;2023-10-08T15:09:37;17.30;84.30
45619;DHT22;31343;47.520;19.144;2023-10-08T15:12:05;17.20;84.80
45619;DHT22;31343;47.520;19.144;2023-10-08T15:14:35;17.20;84.40
45619;DHT22;31343;47.520;19.144;2023-10-08T15:17:03;17.20;85.00
45619;DHT22;31343;47.520;19.144;2023-10-08T15:19:30;17.10;84.90
45619;DHT22;31343;47.520;19.144;2023-10-08T15:21:57;17.10;85.20
45619;DHT22;31343;47.520;19.144;2023-10-08T15:24:24;17.10;85.30
45619;DHT22;31343;47.520;19.144;2023-10-08T15:26:51;17.20;84.60
45619;DHT22;31343;47.520;19.144;2023-10-08T15:29:19;17.10;85.00
45619;DHT22;31343;47.520;19.144;2023-10-08T15:31:46;17.00;84.50
45619;DHT22;31343;47.520;19.144;2023-10-08T15:34:12;17.00;84.40
45619;DHT22;31343;47.520;19.144;2023-10-08T15:36:41;16.90;84.70
45619;DHT22;31343;47.520;19.144;2023-10-08T15:39:07;16.80;85.20
45619;DHT22;31343;47.520;19.144;2023-10-08T15:41:38;16.80;85.10
45619;DHT22;31343;47.520;19.144;2023-10-08T15:44:04;16.70;84.80
45619;DHT22;31343;47.520;19.144;2023-10-08T15:46:33;16.70;84.50